createdAt,value
2018-06-02T00:00:47.239Z,72.05
2018-06-02T00:03:16.056Z,71.60
2018-06-02T00:05:45.216Z,71.29
2018-06-02T00:08:14.229Z,71.33
2018-06-02T00:10:43.077Z,72.45
2018-06-02T00:13:11.921Z,71.39
2018-06-02T00:15:40.780Z,72.83
2018-06-02T00:18:09.609Z,72.70
2018-06-02T00:20:38.465Z,72.86
2018-06-02T00:23:07.316Z,73.01
2018-06-02T00:25:36.192Z,73.48
2018-06-02T00:28:05.275Z,73.56
2018-06-02T00:30:34.352Z,74.00
2018-06-02T00:33:03.188Z,74.22
2018-06-02T00:35:32.281Z,73.62
2018-06-02T00:38:01.308Z,74.36
2018-06-02T00:40:30.418Z,73.98
2018-06-02T00:42:59.370Z,72.02
2018-06-02T00:45:28.204Z,73.66
2018-06-02T00:47:57.381Z,74.47
2018-06-02T00:50:26.971Z,74.46
2018-06-02T00:52:55.919Z,74.35
2018-06-02T00:55:24.883Z,74.93
2018-06-02T00:57:53.808Z,74.90
2018-06-02T01:00:22.893Z,73.67
2018-06-02T01:02:52.003Z,72.37
2018-06-02T01:05:20.926Z,74.18
2018-06-02T01:07:49.801Z,75.79
2018-06-02T01:10:18.724Z,74.32
2018-06-02T01:12:47.858Z,73.63
2018-06-02T01:15:16.841Z,75.19
2018-06-02T01:17:45.696Z,75.97
2018-06-02T01:20:14.495Z,76.91
2018-06-02T01:22:43.593Z,76.11
2018-06-02T01:25:12.596Z,76.06
2018-06-02T01:27:41.633Z,75.15
2018-06-02T01:30:10.832Z,75.32
2018-06-02T01:32:39.852Z,75.72
2018-06-02T01:35:08.876Z,74.85
2018-06-02T01:37:37.856Z,75.18
2018-06-02T01:40:06.772Z,75.64
2018-06-02T01:42:35.991Z,75.38
2018-06-02T01:45:05.081Z,75.08
2018-06-02T01:47:34.138Z,75.56
2018-06-02T01:50:02.965Z,75.52
2018-06-02T01:52:31.821Z,74.74
2018-06-02T01:55:00.696Z,74.68
2018-06-02T01:57:29.653Z,76.33
2018-06-02T01:59:58.730Z,75.27
2018-06-02T02:02:27.637Z,75.23
2018-06-02T02:04:56.445Z,76.15
2018-06-02T02:07:25.341Z,76.55
2018-06-02T02:09:54.237Z,77.90
2018-06-02T02:12:23.300Z,77.53
2018-06-02T02:14:52.253Z,77.82
2018-06-02T02:17:21.351Z,77.72
2018-06-02T02:19:50.257Z,78.52
2018-06-02T02:22:19.071Z,79.39
2018-06-02T02:24:48.065Z,79.66
2018-06-02T02:27:17.220Z,76.95
2018-06-02T02:29:46.203Z,77.39
2018-06-02T02:32:15.131Z,78.60
2018-06-02T02:34:44.461Z,79.50
2018-06-02T02:37:13.392Z,79.71
2018-06-02T02:39:42.644Z,79.89
2018-06-02T02:42:11.754Z,79.30
2018-06-02T02:44:40.793Z,80.14
2018-06-02T02:47:09.717Z,80.91
2018-06-02T02:49:38.650Z,80.32
2018-06-02T02:52:07.501Z,80.41
2018-06-02T02:54:36.418Z,81.98
2018-06-02T02:57:05.548Z,82.66
2018-06-02T02:59:34.672Z,82.92
2018-06-02T03:02:03.576Z,83.13
2018-06-02T03:04:33.731Z,83.50
2018-06-02T03:07:02.861Z,83.78
2018-06-02T03:09:31.911Z,84.18
2018-06-02T03:12:00.867Z,83.76
2018-06-02T03:14:29.746Z,84.44
2018-06-02T03:16:58.791Z,84.65
2018-06-02T03:19:27.829Z,85.27
2018-06-02T03:21:57.028Z,85.48
2018-06-02T03:24:26.198Z,84.43
2018-06-02T03:26:55.184Z,84.69
2018-06-02T03:29:24.245Z,83.72
2018-06-02T03:31:53.219Z,83.07
2018-06-02T03:34:22.202Z,83.40
2018-06-02T03:36:51.070Z,83.16
2018-06-02T03:39:19.926Z,82.47
2018-06-02T03:41:48.848Z,79.19
2018-06-02T03:44:17.981Z,79.76
2018-06-02T03:46:46.934Z,79.39
2018-06-02T03:49:15.942Z,78.88
2018-06-02T03:51:44.860Z,78.52
2018-06-02T03:54:13.957Z,74.91
2018-06-02T03:56:42.940Z,77.61
2018-06-02T03:59:11.960Z,75.49
2018-06-02T04:01:40.884Z,74.06
2018-06-02T04:04:09.782Z,70.26
2018-06-02T04:06:38.696Z,69.39
2018-06-02T04:09:08.319Z,66.84
2018-06-02T04:11:37.369Z,70.75
2018-06-02T04:14:07.029Z,67.86
2018-06-02T04:16:36.112Z,70.26
2018-06-02T04:19:04.998Z,71.39
2018-06-02T04:21:33.846Z,71.48
2018-06-02T04:24:02.802Z,72.75
2018-06-02T04:26:31.733Z,71.77
2018-06-02T04:29:00.804Z,71.92
2018-06-02T04:31:29.741Z,72.07
2018-06-02T04:33:58.813Z,72.30
2018-06-02T04:36:27.858Z,74.66
2018-06-02T04:38:56.910Z,75.08
2018-06-02T04:41:25.885Z,75.35
2018-06-02T04:43:54.972Z,74.48
2018-06-02T04:46:23.893Z,76.19
2018-06-02T04:48:52.948Z,75.44
2018-06-02T04:51:21.813Z,73.00
2018-06-02T04:53:51.077Z,74.05
2018-06-02T04:56:20.028Z,72.61
2018-06-02T04:58:49.284Z,73.45
2018-06-02T05:01:18.344Z,72.87
2018-06-02T05:03:47.147Z,72.78
2018-06-02T05:06:16.356Z,73.42
2018-06-02T05:08:45.205Z,77.19
2018-06-02T05:11:14.179Z,76.57
2018-06-02T05:13:43.022Z,76.24
2018-06-02T05:16:12.029Z,76.42
2018-06-02T05:18:41.100Z,75.20
2018-06-02T05:21:10.061Z,76.45
2018-06-02T05:23:39.023Z,77.08
2018-06-02T05:26:07.950Z,75.81
2018-06-02T05:28:36.794Z,76.01
2018-06-02T05:31:05.863Z,76.14
2018-06-02T05:33:34.920Z,75.36
2018-06-02T05:36:03.933Z,74.03
2018-06-02T05:38:33.053Z,72.36
2018-06-02T05:41:01.972Z,72.36
2018-06-02T05:43:30.840Z,71.82
2018-06-02T05:45:59.798Z,72.58
2018-06-02T05:48:28.679Z,72.75
2018-06-02T05:50:57.682Z,72.59
2018-06-02T05:53:26.736Z,74.05
2018-06-02T05:55:55.630Z,74.23
2018-06-02T05:58:24.467Z,73.48
2018-06-02T06:00:53.567Z,74.15
2018-06-02T06:03:22.420Z,73.89
2018-06-02T06:05:51.308Z,74.15
2018-06-02T06:08:20.295Z,75.79
2018-06-02T06:10:49.136Z,76.03
2018-06-02T06:13:18.138Z,74.96
2018-06-02T06:15:46.972Z,75.13
2018-06-02T06:18:15.800Z,74.90
2018-06-02T06:20:44.819Z,72.46
2018-06-02T06:23:13.732Z,71.75
2018-06-02T06:25:42.531Z,72.44
2018-06-02T06:28:11.566Z,70.76
2018-06-02T06:30:40.453Z,69.44
2018-06-02T06:33:09.313Z,69.82
2018-06-02T06:35:38.305Z,69.17
2018-06-02T06:38:07.237Z,71.62
2018-06-02T06:40:36.226Z,71.99
2018-06-02T06:43:05.351Z,71.97
2018-06-02T06:45:34.267Z,72.77
2018-06-02T06:48:03.457Z,73.05
2018-06-02T06:50:32.362Z,71.75
2018-06-02T06:53:01.266Z,72.08
2018-06-02T06:55:30.284Z,71.71
2018-06-02T06:57:59.282Z,70.96
2018-06-02T07:00:28.182Z,71.21
2018-06-02T07:02:57.112Z,70.00
2018-06-02T07:05:26.024Z,71.46
2018-06-02T07:07:54.947Z,70.45
2018-06-02T07:10:23.924Z,69.37
2018-06-02T07:12:52.807Z,72.01
2018-06-02T07:15:21.736Z,70.40
2018-06-02T07:17:50.717Z,72.02
2018-06-02T07:20:19.704Z,71.84
2018-06-02T07:22:48.612Z,72.22
2018-06-02T07:25:17.450Z,70.79
2018-06-02T07:27:46.345Z,71.47
2018-06-02T07:30:15.335Z,71.90
2018-06-02T07:32:44.334Z,71.32
2018-06-02T07:35:13.201Z,70.16
2018-06-02T07:37:42.436Z,70.71
2018-06-02T07:40:11.254Z,68.35
2018-06-02T07:42:40.079Z,70.70
2018-06-02T07:45:09.184Z,68.53
2018-06-02T07:47:38.128Z,68.40
2018-06-02T07:50:07.093Z,68.11
2018-06-02T07:52:36.164Z,69.50
2018-06-02T07:55:04.995Z,67.92
2018-06-02T07:57:34.093Z,67.84
2018-06-02T08:00:03.366Z,69.19
2018-06-02T08:02:32.317Z,67.49
2018-06-02T08:05:01.120Z,68.98
2018-06-02T08:07:30.056Z,66.61
2018-06-02T08:09:58.855Z,66.76
2018-06-02T08:12:27.726Z,68.95
2018-06-02T08:14:56.705Z,68.93
2018-06-02T08:17:25.863Z,68.04
2018-06-02T08:19:55.635Z,65.73
2018-06-02T08:22:24.719Z,66.42
2018-06-02T08:24:53.808Z,66.35
2018-06-02T08:27:22.814Z,64.90
2018-06-02T08:29:51.917Z,65.86
2018-06-02T08:32:20.992Z,66.30
2018-06-02T08:34:49.945Z,68.90
2018-06-02T08:37:18.940Z,66.29
2018-06-02T08:39:48.004Z,64.27
2018-06-02T08:42:17.072Z,62.95
2018-06-02T08:44:46.138Z,63.02
2018-06-02T08:47:15.386Z,62.24
2018-06-02T08:49:44.461Z,62.90
2018-06-02T08:52:13.392Z,63.15
2018-06-02T08:54:42.241Z,64.06
2018-06-02T08:57:11.133Z,64.23
2018-06-02T08:59:40.825Z,64.61
2018-06-02T09:02:09.753Z,62.88
2018-06-02T09:04:39.055Z,64.12
2018-06-02T09:07:08.158Z,63.27
2018-06-02T09:09:37.201Z,62.82
2018-06-02T09:12:06.191Z,62.56
2018-06-02T09:14:35.336Z,63.74
2018-06-02T09:17:04.350Z,64.07
2018-06-02T09:19:33.643Z,62.73
2018-06-02T09:22:02.493Z,62.12
2018-06-02T09:24:33.188Z,60.51
2018-06-02T09:27:02.011Z,60.96
2018-06-02T09:29:31.053Z,62.24
2018-06-02T09:32:00.180Z,59.77
2018-06-02T09:34:29.224Z,60.49
2018-06-02T09:36:58.840Z,62.74
2018-06-02T09:39:27.904Z,62.81
2018-06-02T09:41:57.786Z,62.49
2018-06-02T09:44:26.906Z,61.79
2018-06-02T09:46:55.896Z,60.07
2018-06-02T09:49:24.996Z,62.14
2018-06-02T09:51:54.968Z,60.81
2018-06-02T09:54:23.997Z,60.32
2018-06-02T09:56:53.097Z,59.74
2018-06-02T09:59:22.060Z,59.98
2018-06-02T10:01:51.036Z,58.87
2018-06-02T10:04:20.021Z,61.64
2018-06-02T10:06:48.928Z,59.55
2018-06-02T10:09:17.972Z,58.11
2018-06-02T10:11:47.050Z,56.36
2018-06-02T10:14:15.882Z,57.66
2018-06-02T10:16:44.932Z,59.33
2018-06-02T10:19:14.104Z,57.48
2018-06-02T10:21:42.985Z,56.57
2018-06-02T10:24:11.989Z,56.11
2018-06-02T10:26:40.864Z,57.25
2018-06-02T10:29:09.861Z,57.87
2018-06-02T10:31:38.958Z,58.28
2018-06-02T10:34:08.017Z,57.19
2018-06-02T10:36:36.943Z,58.77
2018-06-02T10:39:05.882Z,59.79
2018-06-02T10:41:35.151Z,59.90
2018-06-02T10:44:05.200Z,57.60
2018-06-02T10:46:34.235Z,55.89
2018-06-02T10:49:03.248Z,56.70
2018-06-02T10:51:32.284Z,56.67
2018-06-02T10:54:01.194Z,55.19
2018-06-02T10:56:30.070Z,57.44
2018-06-02T10:58:59.181Z,56.34
2018-06-02T11:01:28.229Z,55.10
2018-06-02T11:03:57.397Z,57.11
2018-06-02T11:06:26.525Z,56.01
2018-06-02T11:08:55.636Z,58.58
2018-06-02T11:11:24.503Z,57.81
2018-06-02T11:13:53.507Z,57.05
2018-06-02T11:16:22.395Z,57.54
2018-06-02T11:18:51.526Z,53.97
2018-06-02T11:21:20.544Z,57.07
2018-06-02T11:23:49.576Z,55.26
2018-06-02T11:26:18.672Z,54.49
2018-06-02T11:28:47.721Z,56.51
2018-06-02T11:31:21.553Z,56.61
2018-06-02T11:33:50.772Z,55.64
2018-06-02T11:36:19.836Z,55.33
2018-06-02T11:38:54.617Z,54.55
2018-06-02T11:41:25.738Z,55.79
2018-06-02T11:43:58.957Z,56.00
2018-06-02T11:46:28.779Z,54.96
2018-06-02T11:48:57.749Z,56.34
2018-06-02T11:51:26.823Z,54.37
2018-06-02T11:53:55.888Z,53.32
2018-06-02T11:56:24.856Z,54.44
2018-06-02T11:58:53.824Z,54.85
2018-06-02T12:01:22.992Z,54.40
2018-06-02T12:03:52.172Z,56.73
2018-06-02T12:06:21.180Z,58.81
2018-06-02T12:08:50.275Z,56.00
2018-06-02T12:11:19.340Z,56.39
2018-06-02T12:13:48.435Z,53.72
2018-06-02T12:16:17.570Z,53.04
2018-06-02T12:18:46.697Z,54.54
2018-06-02T12:21:16.382Z,53.71
2018-06-02T12:23:45.460Z,53.51
2018-06-02T12:26:14.562Z,54.04
2018-06-02T12:28:43.537Z,55.51
2018-06-02T12:31:12.857Z,57.95
2018-06-02T12:33:41.804Z,54.26
2018-06-02T12:36:10.785Z,54.23
2018-06-02T12:38:40.033Z,53.42
2018-06-02T12:41:09.175Z,54.03
2018-06-02T12:43:38.304Z,55.36
2018-06-02T12:46:07.490Z,54.94
2018-06-02T12:48:36.388Z,53.26
2018-06-02T12:51:21.138Z,53.72
2018-06-02T12:53:51.146Z,51.85
2018-06-02T12:56:20.203Z,53.71
2018-06-02T12:58:50.181Z,53.02
2018-06-02T13:01:19.155Z,52.34
2018-06-02T13:03:48.308Z,52.93
2018-06-02T13:06:17.365Z,53.16
2018-06-02T13:08:46.481Z,48.30
2018-06-02T13:11:15.407Z,49.81
2018-06-02T13:13:44.229Z,46.73
2018-06-02T13:16:13.352Z,44.81
2018-06-02T13:18:42.217Z,42.65
2018-06-02T13:21:11.272Z,44.80
2018-06-02T13:23:40.353Z,43.70
2018-06-02T13:26:09.512Z,43.11
2018-06-02T13:28:38.573Z,44.94
2018-06-02T13:31:07.451Z,40.69
2018-06-02T13:33:38.160Z,43.13
2018-06-02T13:36:07.319Z,40.41
2018-06-02T13:38:36.299Z,42.39
2018-06-02T13:41:05.193Z,37.81
2018-06-02T13:43:34.276Z,37.75
2018-06-02T13:46:03.244Z,41.15
2018-06-02T13:48:32.197Z,37.78
2018-06-02T13:51:01.208Z,36.15
2018-06-02T13:53:30.149Z,37.74
2018-06-02T13:55:58.992Z,41.03
2018-06-02T13:58:27.848Z,36.19
2018-06-02T14:00:57.700Z,38.77
2018-06-02T14:03:26.840Z,37.67
2018-06-02T14:05:55.774Z,36.25
2018-06-02T14:08:24.865Z,34.69
2018-06-02T14:10:53.823Z,34.61
2018-06-02T14:13:23.085Z,38.21
2018-06-02T14:15:52.085Z,36.48
2018-06-02T14:18:27.270Z,36.42
2018-06-02T14:21:01.988Z,35.31
2018-06-02T14:23:30.978Z,31.80
2018-06-02T14:25:59.932Z,31.99
2018-06-02T14:28:29.026Z,35.94
2018-06-02T14:30:58.212Z,38.38
2018-06-02T14:33:27.471Z,34.83
2018-06-02T14:35:56.467Z,34.30
2018-06-02T14:38:25.440Z,33.36
2018-06-02T14:40:54.366Z,36.79
2018-06-02T14:43:23.404Z,37.90
2018-06-02T14:45:52.263Z,41.16
2018-06-02T14:48:21.378Z,33.64
2018-06-02T14:50:50.385Z,31.81
2018-06-02T14:53:19.401Z,34.80
2018-06-02T14:55:48.495Z,36.19
2018-06-02T14:58:17.320Z,35.03
2018-06-02T15:00:46.423Z,33.33
2018-06-02T15:03:15.353Z,35.07
2018-06-02T15:05:44.157Z,35.74
2018-06-02T15:08:13.236Z,34.32
2018-06-02T15:10:42.164Z,32.39
2018-06-02T15:13:10.956Z,32.34
2018-06-02T15:15:39.959Z,31.98
2018-06-02T15:18:09.149Z,33.59
2018-06-02T15:20:37.980Z,33.36
2018-06-02T15:23:07.015Z,33.34
2018-06-02T15:25:35.940Z,33.60
2018-06-02T15:28:05.148Z,32.39
2018-06-02T15:30:34.007Z,35.84
2018-06-02T15:33:03.016Z,38.19
2018-06-02T15:35:32.197Z,36.12
2018-06-02T15:38:01.258Z,35.13
2018-06-02T15:40:30.353Z,34.12
2018-06-02T15:42:59.225Z,36.08
2018-06-02T15:45:28.285Z,32.67
2018-06-02T15:47:57.329Z,33.61
2018-06-02T15:50:26.367Z,33.45
2018-06-02T15:52:55.536Z,35.61
2018-06-02T15:55:24.439Z,33.75
2018-06-02T15:57:53.477Z,35.22
2018-06-02T16:00:22.484Z,33.64
2018-06-02T16:02:51.371Z,33.24
2018-06-02T16:05:20.224Z,34.53
2018-06-02T16:07:49.156Z,33.52
2018-06-02T16:10:18.314Z,33.74
2018-06-02T16:12:47.273Z,33.42
2018-06-02T16:15:16.299Z,34.08
2018-06-02T16:17:45.352Z,32.49
2018-06-02T16:20:14.264Z,33.71
2018-06-02T16:22:43.321Z,36.16
2018-06-02T16:25:12.572Z,35.32
2018-06-02T16:27:41.641Z,35.38
2018-06-02T16:30:10.668Z,36.14
2018-06-02T16:32:39.606Z,34.01
2018-06-02T16:35:08.435Z,35.82
2018-06-02T16:37:37.640Z,36.23
2018-06-02T16:40:06.826Z,38.93
2018-06-02T16:42:35.569Z,37.99
2018-06-02T16:45:04.484Z,36.07
2018-06-02T16:47:33.360Z,36.36
2018-06-02T16:50:02.487Z,39.69
2018-06-02T16:52:31.326Z,37.27
2018-06-02T16:55:00.328Z,37.91
2018-06-02T16:57:29.247Z,40.04
2018-06-02T16:59:58.409Z,39.80
2018-06-02T17:02:27.394Z,43.23
2018-06-02T17:04:56.541Z,43.38
2018-06-02T17:07:26.200Z,41.25
2018-06-02T17:09:55.088Z,42.01
2018-06-02T17:12:24.215Z,43.53
2018-06-02T17:14:53.124Z,45.20
2018-06-02T17:17:22.026Z,45.38
2018-06-02T17:19:51.097Z,48.20
2018-06-02T17:22:19.976Z,48.82
2018-06-02T17:24:48.876Z,50.39
2018-06-02T17:27:17.747Z,53.94
2018-06-02T17:29:46.668Z,54.95
2018-06-02T17:32:15.661Z,57.89
2018-06-02T17:34:44.673Z,57.83
2018-06-02T17:37:13.473Z,57.60
2018-06-02T17:39:42.268Z,59.03
2018-06-02T17:42:11.084Z,58.68
2018-06-02T17:44:41.083Z,61.55
2018-06-02T17:47:10.090Z,62.44
2018-06-02T17:49:38.956Z,61.33
2018-06-02T17:52:07.840Z,62.78
2018-06-02T17:54:36.616Z,62.66
2018-06-02T17:57:05.460Z,63.69
2018-06-02T17:59:34.302Z,64.65
2018-06-02T18:02:03.204Z,65.03
2018-06-02T18:04:32.034Z,64.47
2018-06-02T18:07:00.835Z,65.85
2018-06-02T18:09:29.878Z,65.58
2018-06-02T18:11:58.624Z,65.55
2018-06-02T18:14:27.550Z,65.72
2018-06-02T18:16:56.576Z,65.27
2018-06-02T18:19:25.416Z,63.91
2018-06-02T18:21:54.128Z,65.36
2018-06-02T18:24:22.830Z,65.75
2018-06-02T18:26:51.574Z,65.97
2018-06-02T18:29:20.624Z,66.62
2018-06-02T18:31:49.354Z,66.78
2018-06-02T18:34:18.570Z,66.97
2018-06-02T18:36:47.303Z,67.04
2018-06-02T18:39:16.058Z,66.78
2018-06-02T18:41:44.874Z,67.28
2018-06-02T18:44:13.525Z,66.51
2018-06-02T18:46:42.425Z,66.79
2018-06-02T18:49:11.359Z,66.95
2018-06-02T18:51:40.309Z,67.48
2018-06-02T18:54:09.245Z,67.58
2018-06-02T18:56:37.911Z,67.54
2018-06-02T18:59:07.051Z,66.61
2018-06-02T19:01:35.896Z,67.34
2018-06-02T19:04:04.572Z,67.70
2018-06-02T19:06:33.353Z,68.13
2018-06-02T19:09:02.201Z,67.94
2018-06-02T19:11:30.890Z,67.85
2018-06-02T19:13:59.635Z,67.70
2018-06-02T19:16:28.441Z,67.00
2018-06-02T19:18:57.124Z,66.99
2018-06-02T19:21:25.940Z,67.99
2018-06-02T19:23:54.700Z,67.72
2018-06-02T19:26:23.513Z,67.35
2018-06-02T19:28:52.212Z,67.71
2018-06-02T19:31:20.902Z,67.75
2018-06-02T19:33:49.735Z,68.41
2018-06-02T19:36:18.578Z,68.63
2018-06-02T19:38:47.328Z,69.45
2018-06-02T19:41:16.134Z,69.48
2018-06-02T19:43:44.804Z,69.57
2018-06-02T19:46:14.035Z,69.12
2018-06-02T19:48:42.848Z,69.23
2018-06-02T19:51:11.692Z,69.22
2018-06-02T19:53:40.538Z,70.04
2018-06-02T19:56:09.683Z,70.33
2018-06-02T19:58:38.364Z,70.58
2018-06-02T20:01:07.156Z,70.64
2018-06-02T20:03:35.899Z,70.90
2018-06-02T20:06:04.652Z,71.09
2018-06-02T20:08:33.767Z,71.55
2018-06-02T20:11:02.510Z,71.60
2018-06-02T20:13:31.230Z,71.87
2018-06-02T20:16:00.148Z,71.88
2018-06-02T20:18:28.893Z,72.65
2018-06-02T20:20:57.739Z,72.46
2018-06-02T20:23:26.745Z,73.51
2018-06-02T20:25:55.630Z,73.76
2018-06-02T20:28:24.652Z,73.83
2018-06-02T20:30:53.308Z,74.07
2018-06-02T20:33:22.089Z,74.53
2018-06-02T20:35:51.004Z,74.60
2018-06-02T20:38:19.883Z,74.85
2018-06-02T20:40:48.856Z,74.91
2018-06-02T20:43:17.876Z,74.94
2018-06-02T20:45:46.745Z,75.11
2018-06-02T20:48:15.477Z,75.63
2018-06-02T20:50:44.265Z,76.25
2018-06-02T20:53:13.165Z,76.26
2018-06-02T20:55:42.012Z,76.59
2018-06-02T20:58:10.794Z,77.06
2018-06-02T21:00:39.812Z,77.26
2018-06-02T21:03:08.754Z,78.04
2018-06-02T21:05:38.069Z,77.54
2018-06-02T21:08:06.977Z,77.65
2018-06-02T21:10:36.723Z,78.36
2018-06-02T21:13:05.667Z,78.49
2018-06-02T21:15:34.470Z,78.59
2018-06-02T21:18:03.232Z,78.55
2018-06-02T21:20:31.979Z,78.70
2018-06-02T21:23:00.699Z,79.11
2018-06-02T21:25:29.564Z,79.73
2018-06-02T21:27:58.427Z,79.88
2018-06-02T21:30:27.437Z,80.30
2018-06-02T21:32:56.164Z,80.29
2018-06-02T21:35:25.639Z,80.33
2018-06-02T21:37:55.111Z,81.02
2018-06-02T21:40:24.030Z,81.46
2018-06-02T21:42:52.824Z,80.58
2018-06-02T21:45:21.821Z,80.22
2018-06-02T21:47:50.703Z,79.99
2018-06-02T21:50:19.644Z,80.20
2018-06-02T21:52:48.564Z,81.36
2018-06-02T21:55:17.520Z,81.06
2018-06-02T21:57:46.381Z,80.25
2018-06-02T22:00:15.362Z,80.71
2018-06-02T22:02:44.149Z,81.14
2018-06-02T22:05:13.096Z,81.16
2018-06-02T22:07:41.901Z,81.77
2018-06-02T22:10:10.918Z,82.04
2018-06-02T22:12:40.042Z,82.00
2018-06-02T22:15:08.786Z,82.08
2018-06-02T22:17:37.713Z,82.46
2018-06-02T22:20:06.422Z,82.92
2018-06-02T22:22:35.240Z,83.48
2018-06-02T22:25:04.068Z,83.55
2018-06-02T22:27:32.940Z,83.77
2018-06-02T22:30:01.804Z,84.09
2018-06-02T22:32:30.870Z,84.42
2018-06-02T22:34:59.630Z,83.87
2018-06-02T22:37:28.622Z,84.67
2018-06-02T22:39:57.548Z,84.80
2018-06-02T22:42:26.396Z,84.94
2018-06-02T22:44:55.076Z,85.81
2018-06-02T22:47:23.848Z,86.30
2018-06-02T22:49:52.641Z,86.73
2018-06-02T22:52:21.653Z,86.98
2018-06-02T22:54:50.593Z,87.00
2018-06-02T22:57:19.341Z,87.13
2018-06-02T22:59:48.558Z,86.55
2018-06-02T23:02:17.382Z,85.88
2018-06-02T23:04:46.000Z,85.80
2018-06-02T23:07:14.575Z,85.63
2018-06-02T23:09:43.102Z,85.37
2018-06-02T23:12:11.543Z,85.35
2018-06-02T23:14:39.954Z,85.15
2018-06-02T23:17:08.542Z,85.06
2018-06-02T23:19:37.224Z,84.99
2018-06-02T23:22:05.773Z,84.83
2018-06-02T23:24:34.228Z,84.95
2018-06-02T23:27:02.753Z,85.39
2018-06-02T23:29:31.288Z,85.69
2018-06-02T23:32:00.783Z,86.68
2018-06-02T23:34:29.822Z,86.23
2018-06-02T23:36:58.400Z,87.38
2018-06-02T23:39:26.937Z,90.68
2018-06-02T23:41:55.672Z,92.51
2018-06-02T23:44:25.106Z,93.64
2018-06-02T23:46:53.704Z,94.33
2018-06-02T23:49:22.118Z,94.28
2018-06-02T23:51:50.548Z,94.33
2018-06-02T23:54:19.149Z,94.16
2018-06-02T23:56:47.694Z,93.94
2018-06-02T23:59:16.180Z,93.83
